createdAt,value
2017-12-21T00:00:30.278Z,83.80
2017-12-21T00:02:57.949Z,83.50
2017-12-21T00:05:25.398Z,83.10
2017-12-21T00:07:52.864Z,82.80
2017-12-21T00:10:26.700Z,82.40
2017-12-21T00:12:54.164Z,82.60
2017-12-21T00:15:21.656Z,82.20
2017-12-21T00:17:49.111Z,82.10
2017-12-21T00:20:16.576Z,81.40
2017-12-21T00:22:44.255Z,81.70
2017-12-21T00:25:11.711Z,81.80
2017-12-21T00:27:39.175Z,82.80
2017-12-21T00:30:06.686Z,83.10
2017-12-21T00:32:34.191Z,83.30
2017-12-21T00:35:01.647Z,83.00
2017-12-21T00:37:29.891Z,84.70
2017-12-21T00:39:57.683Z,84.60
2017-12-21T00:42:25.140Z,85.00
2017-12-21T00:44:52.811Z,85.60
2017-12-21T00:47:20.276Z,83.90
2017-12-21T00:49:48.506Z,83.60
2017-12-21T00:52:15.964Z,83.60
2017-12-21T00:54:43.422Z,84.20
2017-12-21T00:57:10.880Z,84.20
2017-12-21T00:59:38.351Z,83.90
2017-12-21T01:02:05.806Z,83.30
2017-12-21T01:04:33.283Z,83.20
2017-12-21T01:07:01.543Z,84.30
2017-12-21T01:09:29.795Z,84.20
2017-12-21T01:11:57.248Z,84.20
2017-12-21T01:14:24.731Z,84.20
2017-12-21T01:16:52.188Z,84.80
2017-12-21T01:19:19.651Z,85.00
2017-12-21T01:21:47.934Z,85.30
2017-12-21T01:24:16.172Z,85.40
2017-12-21T01:26:43.675Z,85.50
2017-12-21T01:29:11.341Z,85.80
2017-12-21T01:31:38.800Z,86.10
2017-12-21T01:34:06.251Z,86.20
2017-12-21T01:36:34.679Z,86.60
2017-12-21T01:39:02.200Z,87.10
2017-12-21T01:41:29.876Z,87.70
2017-12-21T01:43:57.338Z,88.00
2017-12-21T01:46:25.023Z,88.10
2017-12-21T01:48:52.492Z,88.40
2017-12-21T01:51:19.972Z,89.40
2017-12-21T01:53:48.212Z,89.00
2017-12-21T01:56:15.670Z,89.10
2017-12-21T01:58:43.214Z,88.80
2017-12-21T02:01:10.680Z,88.50
2017-12-21T02:03:38.188Z,88.20
2017-12-21T02:06:05.659Z,88.10
2017-12-21T02:08:33.129Z,88.20
2017-12-21T02:11:00.610Z,88.30
2017-12-21T02:13:28.127Z,88.80
2017-12-21T02:15:55.592Z,90.20
2017-12-21T02:18:23.048Z,89.60
2017-12-21T02:20:50.503Z,89.80
2017-12-21T02:23:17.956Z,90.00
2017-12-21T02:25:45.415Z,90.10
2017-12-21T02:28:12.929Z,90.00
2017-12-21T02:30:41.196Z,90.00
2017-12-21T02:33:08.680Z,90.00
2017-12-21T02:35:36.171Z,90.00
2017-12-21T02:38:03.632Z,90.00
2017-12-21T02:40:31.092Z,89.80
2017-12-21T02:42:58.550Z,89.90
2017-12-21T02:45:26.002Z,90.40
2017-12-21T02:47:53.459Z,90.10
2017-12-21T02:50:20.906Z,90.10
2017-12-21T02:52:48.409Z,90.00
2017-12-21T02:55:15.960Z,90.00
2017-12-21T02:57:44.219Z,90.00
2017-12-21T03:00:11.882Z,90.00
2017-12-21T03:02:39.339Z,89.70
2017-12-21T03:05:06.801Z,89.80
2017-12-21T03:07:34.267Z,89.50
2017-12-21T03:10:02.511Z,88.50
2017-12-21T03:12:30.044Z,88.50
2017-12-21T03:14:57.513Z,88.80
2017-12-21T03:17:25.021Z,89.00
2017-12-21T03:19:53.254Z,88.90
2017-12-21T03:22:20.716Z,88.90
2017-12-21T03:24:48.167Z,88.90
2017-12-21T03:27:15.636Z,88.80
2017-12-21T03:29:43.094Z,88.70
2017-12-21T03:32:10.547Z,88.50
2017-12-21T03:34:38.990Z,88.50
2017-12-21T03:37:06.458Z,88.70
2017-12-21T03:39:33.909Z,88.80
2017-12-21T03:42:01.369Z,88.90
2017-12-21T03:44:28.820Z,89.10
2017-12-21T03:46:56.483Z,89.30
2017-12-21T03:49:23.950Z,89.20
2017-12-21T03:51:51.415Z,89.00
2017-12-21T03:54:18.878Z,88.90
2017-12-21T03:56:46.340Z,88.80
2017-12-21T03:59:13.803Z,89.00
2017-12-21T04:01:41.251Z,89.10
2017-12-21T04:04:08.726Z,89.10
2017-12-21T04:06:37.002Z,89.10
2017-12-21T04:09:05.329Z,88.80
2017-12-21T04:11:32.804Z,88.80
2017-12-21T04:14:00.399Z,88.90
2017-12-21T04:16:28.651Z,86.90
2017-12-21T04:18:56.161Z,87.00
2017-12-21T04:21:23.843Z,86.80
2017-12-21T04:23:51.349Z,87.80
2017-12-21T04:26:18.800Z,87.50
2017-12-21T04:28:46.675Z,87.40
2017-12-21T04:31:14.911Z,86.90
2017-12-21T04:33:42.392Z,87.00
2017-12-21T04:36:09.923Z,86.80
2017-12-21T04:38:37.470Z,86.50
2017-12-21T04:41:05.147Z,86.30
2017-12-21T04:43:32.616Z,86.50
2017-12-21T04:46:00.067Z,87.20
2017-12-21T04:48:27.560Z,88.00
2017-12-21T04:50:55.768Z,88.70
2017-12-21T04:53:23.231Z,88.70
2017-12-21T04:55:50.700Z,88.90
2017-12-21T04:58:18.212Z,89.00
2017-12-21T05:00:46.460Z,88.90
2017-12-21T05:03:14.683Z,88.70
2017-12-21T05:05:42.140Z,88.70
2017-12-21T05:08:10.369Z,88.90
2017-12-21T05:10:38.044Z,88.50
2017-12-21T05:13:06.262Z,86.50
2017-12-21T05:15:34.642Z,86.50
2017-12-21T05:18:02.099Z,86.70
2017-12-21T05:20:29.595Z,86.80
2017-12-21T05:22:57.862Z,87.10
2017-12-21T05:25:25.315Z,87.10
2017-12-21T05:27:52.763Z,86.50
2017-12-21T05:30:20.215Z,86.70
2017-12-21T05:32:47.744Z,87.20
2017-12-21T05:35:15.225Z,86.90
2017-12-21T05:37:42.659Z,87.60
2017-12-21T05:40:10.131Z,87.80
2017-12-21T05:42:37.575Z,87.90
2017-12-21T05:45:05.052Z,87.70
2017-12-21T05:47:32.542Z,88.20
2017-12-21T05:50:00.870Z,88.30
2017-12-21T05:52:28.355Z,88.20
2017-12-21T05:54:55.819Z,88.60
2017-12-21T05:57:23.489Z,88.50
2017-12-21T05:59:51.766Z,89.30
2017-12-21T06:02:19.578Z,89.30
2017-12-21T06:04:47.236Z,89.70
2017-12-21T06:07:15.455Z,90.00
2017-12-21T06:09:43.712Z,90.10
2017-12-21T06:12:11.179Z,90.10
2017-12-21T06:14:38.633Z,90.30
2017-12-21T06:17:06.095Z,90.50
2017-12-21T06:19:33.559Z,90.60
2017-12-21T06:22:01.023Z,90.60
2017-12-21T06:24:29.255Z,90.60
2017-12-21T06:26:56.704Z,90.50
2017-12-21T06:29:24.485Z,90.70
2017-12-21T06:31:51.954Z,90.70
2017-12-21T06:34:19.407Z,90.70
2017-12-21T06:36:46.875Z,90.70
2017-12-21T06:39:15.095Z,91.00
2017-12-21T06:41:42.546Z,91.00
2017-12-21T06:44:10.905Z,91.20
2017-12-21T06:46:38.371Z,91.20
2017-12-21T06:49:05.820Z,91.30
2017-12-21T06:51:33.275Z,91.20
2017-12-21T06:54:00.728Z,91.00
2017-12-21T06:56:28.175Z,90.80
2017-12-21T06:58:55.631Z,90.70
2017-12-21T07:01:23.862Z,90.70
2017-12-21T07:03:51.327Z,90.70
2017-12-21T07:06:18.793Z,90.70
2017-12-21T07:08:46.256Z,90.80
2017-12-21T07:11:13.708Z,90.90
2017-12-21T07:13:41.170Z,91.10
2017-12-21T07:16:09.395Z,91.30
2017-12-21T07:18:36.846Z,91.60
2017-12-21T07:21:04.722Z,91.40
2017-12-21T07:23:32.179Z,91.50
2017-12-21T07:25:59.623Z,91.50
2017-12-21T07:28:27.078Z,91.30
2017-12-21T07:30:54.535Z,91.40
2017-12-21T07:33:21.995Z,91.30
2017-12-21T07:35:49.446Z,91.40
2017-12-21T07:38:17.140Z,91.60
2017-12-21T07:40:44.575Z,91.60
2017-12-21T07:43:12.798Z,91.70
2017-12-21T07:45:41.015Z,92.10
2017-12-21T07:48:08.489Z,91.80
2017-12-21T07:50:35.927Z,91.80
2017-12-21T07:53:03.388Z,91.90
2017-12-21T07:55:30.858Z,91.90
2017-12-21T07:57:58.302Z,91.80
2017-12-21T08:00:25.764Z,91.80
2017-12-21T08:02:53.231Z,91.50
2017-12-21T08:05:20.696Z,91.50
2017-12-21T08:07:48.170Z,91.30
2017-12-21T08:10:15.618Z,91.20
2017-12-21T08:12:43.078Z,91.20
2017-12-21T08:15:10.536Z,91.30
2017-12-21T08:17:37.992Z,91.30
2017-12-21T08:20:05.442Z,91.20
2017-12-21T08:22:32.907Z,91.00
2017-12-21T08:25:00.364Z,91.00
2017-12-21T08:27:27.840Z,91.20
2017-12-21T08:29:55.297Z,91.30
2017-12-21T08:32:22.742Z,91.20
2017-12-21T08:34:50.976Z,91.30
2017-12-21T08:37:18.430Z,91.20
2017-12-21T08:39:45.883Z,91.20
2017-12-21T08:42:13.322Z,91.30
2017-12-21T08:44:40.780Z,91.20
2017-12-21T08:47:08.248Z,91.20
2017-12-21T08:49:35.702Z,91.20
2017-12-21T08:52:03.151Z,91.30
2017-12-21T08:54:30.606Z,91.30
2017-12-21T08:56:58.071Z,91.40
2017-12-21T08:59:25.539Z,91.50
2017-12-21T09:01:52.980Z,91.30
2017-12-21T09:04:20.435Z,91.10
2017-12-21T09:06:47.890Z,90.90
2017-12-21T09:09:15.360Z,90.90
2017-12-21T09:11:42.815Z,91.00
2017-12-21T09:14:10.292Z,90.70
2017-12-21T09:16:37.749Z,90.40
2017-12-21T09:19:05.254Z,90.40
2017-12-21T09:21:32.705Z,90.40
2017-12-21T09:24:00.180Z,90.20
2017-12-21T09:26:27.641Z,90.20
2017-12-21T09:28:55.464Z,90.40
2017-12-21T09:31:23.685Z,90.10
2017-12-21T09:33:51.148Z,90.10
2017-12-21T09:36:18.604Z,90.20
2017-12-21T09:38:46.062Z,89.60
2017-12-21T09:41:13.533Z,89.50
2017-12-21T09:43:40.991Z,89.00
2017-12-21T09:46:08.444Z,89.00
2017-12-21T09:48:35.899Z,89.10
2017-12-21T09:51:03.386Z,89.30
2017-12-21T09:53:31.605Z,89.70
2017-12-21T09:55:59.062Z,89.60
2017-12-21T09:58:26.513Z,89.20
2017-12-21T10:00:53.974Z,89.00
2017-12-21T10:03:21.444Z,90.00
2017-12-21T10:05:48.903Z,88.90
2017-12-21T10:08:16.382Z,89.20
2017-12-21T10:10:43.835Z,89.30
2017-12-21T10:13:11.283Z,89.60
2017-12-21T10:15:38.745Z,89.50
2017-12-21T10:18:06.212Z,87.90
2017-12-21T10:20:34.441Z,87.00
2017-12-21T10:23:01.900Z,87.40
2017-12-21T10:25:29.376Z,87.00
2017-12-21T10:27:56.851Z,85.80
2017-12-21T10:30:24.302Z,87.00
2017-12-21T10:32:51.775Z,87.60
2017-12-21T10:35:20.011Z,87.80
2017-12-21T10:37:47.476Z,87.80
2017-12-21T10:40:14.935Z,87.40
2017-12-21T10:42:43.312Z,86.50
2017-12-21T10:45:10.779Z,86.50
2017-12-21T10:47:38.238Z,87.10
2017-12-21T10:50:06.880Z,86.60
2017-12-21T10:52:34.373Z,86.50
2017-12-21T10:55:01.836Z,86.40
2017-12-21T10:57:29.301Z,87.10
2017-12-21T10:59:56.771Z,87.30
2017-12-21T11:02:24.216Z,87.70
2017-12-21T11:04:52.964Z,87.90
2017-12-21T11:07:20.818Z,87.90
2017-12-21T11:09:48.298Z,87.70
2017-12-21T11:12:15.831Z,87.20
2017-12-21T11:14:43.316Z,85.80
2017-12-21T11:17:10.782Z,86.30
2017-12-21T11:19:38.447Z,86.80
2017-12-21T11:22:05.908Z,87.00
2017-12-21T11:27:06.389Z,87.10
2017-12-21T11:29:34.092Z,86.10
2017-12-21T11:32:01.632Z,87.10
2017-12-21T11:34:31.020Z,87.50
2017-12-21T11:36:58.552Z,87.30
2017-12-21T11:39:27.788Z,87.00
2017-12-21T11:41:55.289Z,87.60
2017-12-21T11:44:22.886Z,87.70
2017-12-21T11:46:50.424Z,87.80
2017-12-21T11:49:17.900Z,88.30
2017-12-21T11:51:46.135Z,88.90
2017-12-21T11:54:13.664Z,89.00
2017-12-21T11:56:41.155Z,89.40
2017-12-21T11:59:10.340Z,90.00
2017-12-21T12:01:37.802Z,90.00
2017-12-21T12:04:06.020Z,90.20
2017-12-21T12:06:33.500Z,90.10
2017-12-21T12:09:00.956Z,90.20
2017-12-21T12:11:28.439Z,90.30
2017-12-21T12:13:56.658Z,90.50
2017-12-21T12:16:24.114Z,90.30
2017-12-21T12:18:51.574Z,89.80
2017-12-21T12:21:19.042Z,89.60
2017-12-21T12:23:46.513Z,89.30
2017-12-21T12:26:13.979Z,89.50
2017-12-21T12:28:41.448Z,89.90
2017-12-21T12:31:08.900Z,89.60
2017-12-21T12:33:36.373Z,89.50
2017-12-21T12:36:04.607Z,89.70
2017-12-21T12:38:32.063Z,89.60
2017-12-21T12:40:59.734Z,90.00
2017-12-21T12:43:27.191Z,90.10
2017-12-21T12:45:54.664Z,90.00
2017-12-21T12:48:22.119Z,90.10
2017-12-21T12:50:49.587Z,90.20
2017-12-21T12:53:17.826Z,89.70
2017-12-21T12:55:45.303Z,89.80
2017-12-21T12:58:12.810Z,90.00
2017-12-21T13:00:40.339Z,90.10
2017-12-21T13:03:07.823Z,90.20
2017-12-21T13:05:35.264Z,90.40
2017-12-21T13:08:03.619Z,90.30
2017-12-21T13:10:31.908Z,90.60
2017-12-21T13:12:59.505Z,90.60
2017-12-21T13:15:27.071Z,90.60
2017-12-21T13:17:54.640Z,90.60
2017-12-21T13:20:22.143Z,90.40
2017-12-21T13:22:50.141Z,90.60
2017-12-21T13:25:17.661Z,90.70
2017-12-21T13:27:45.129Z,91.00
2017-12-21T13:30:12.808Z,90.90
2017-12-21T13:32:40.320Z,90.70
2017-12-21T13:35:07.854Z,90.80
2017-12-21T13:37:35.295Z,90.90
2017-12-21T13:40:02.843Z,91.10
2017-12-21T13:42:30.307Z,91.10
2017-12-21T13:44:57.756Z,91.10
2017-12-21T13:47:25.224Z,91.20
2017-12-21T13:49:52.769Z,91.40
2017-12-21T13:52:20.236Z,91.20
2017-12-21T13:54:47.691Z,91.30
2017-12-21T13:57:15.147Z,91.20
2017-12-21T13:59:42.616Z,91.10
2017-12-21T14:02:10.106Z,91.20
2017-12-21T14:04:38.403Z,91.50
2017-12-21T14:07:05.859Z,91.50
2017-12-21T14:09:33.310Z,91.40
2017-12-21T14:12:01.516Z,91.50
2017-12-21T14:14:28.973Z,91.50
2017-12-21T14:16:56.646Z,91.30
2017-12-21T14:19:24.083Z,91.30
2017-12-21T14:21:51.519Z,91.30
2017-12-21T14:24:18.970Z,91.40
2017-12-21T14:26:46.414Z,91.30
2017-12-21T14:29:14.634Z,91.50
2017-12-21T14:31:42.079Z,91.50
2017-12-21T14:34:09.540Z,91.60
2017-12-21T14:36:37.000Z,91.40
2017-12-21T14:39:04.521Z,91.40
2017-12-21T14:41:31.982Z,91.40
2017-12-21T14:43:59.424Z,91.40
2017-12-21T14:46:27.634Z,91.60
2017-12-21T14:48:55.094Z,91.60
2017-12-21T14:51:22.546Z,91.60
2017-12-21T14:53:49.987Z,91.60
2017-12-21T14:56:17.443Z,91.70
2017-12-21T14:58:44.886Z,91.60
2017-12-21T15:01:13.087Z,91.80
2017-12-21T15:03:40.519Z,91.70
2017-12-21T15:06:07.973Z,91.70
2017-12-21T15:08:36.170Z,91.90
2017-12-21T15:11:03.628Z,91.90
2017-12-21T15:13:31.071Z,91.90
2017-12-21T15:15:58.519Z,92.00
2017-12-21T15:18:25.970Z,92.00
2017-12-21T15:20:53.424Z,92.10
2017-12-21T15:23:21.627Z,92.20
2017-12-21T15:25:49.079Z,92.20
2017-12-21T15:28:16.519Z,92.20
2017-12-21T15:30:43.967Z,92.20
2017-12-21T15:33:12.172Z,91.90
2017-12-21T15:35:39.630Z,91.90
2017-12-21T15:38:07.064Z,92.00
2017-12-21T15:40:34.534Z,92.00
2017-12-21T15:43:02.046Z,91.90
2017-12-21T15:45:29.491Z,91.80
2017-12-21T15:47:56.931Z,91.80
2017-12-21T15:50:24.379Z,91.80
2017-12-21T15:52:51.838Z,91.90
2017-12-21T15:55:19.283Z,91.90
2017-12-21T15:57:46.743Z,92.00
2017-12-21T16:00:14.189Z,92.10
2017-12-21T16:02:41.640Z,92.20
2017-12-21T16:05:09.101Z,92.40
2017-12-21T16:07:36.558Z,92.40
2017-12-21T16:10:04.008Z,92.50
2017-12-21T16:12:31.475Z,92.60
2017-12-21T16:14:58.920Z,92.70
2017-12-21T16:17:26.380Z,92.80
2017-12-21T16:19:53.833Z,93.00
2017-12-21T16:22:21.292Z,92.90
2017-12-21T16:24:48.956Z,93.00
2017-12-21T16:27:18.334Z,93.00
2017-12-21T16:29:45.780Z,93.00
2017-12-21T16:32:14.039Z,93.10
2017-12-21T16:34:42.255Z,93.10
2017-12-21T16:37:09.714Z,93.10
2017-12-21T16:39:37.208Z,93.00
2017-12-21T16:42:04.666Z,93.00
2017-12-21T16:44:33.371Z,93.00
2017-12-21T16:47:01.677Z,93.10
2017-12-21T16:49:29.208Z,93.10
2017-12-21T16:51:57.456Z,93.10
2017-12-21T16:54:24.910Z,93.10
2017-12-21T16:56:52.383Z,93.10
2017-12-21T16:59:19.823Z,93.20
2017-12-21T17:01:47.267Z,93.10
2017-12-21T17:04:14.780Z,92.90
2017-12-21T17:06:42.235Z,92.80
2017-12-21T17:09:09.675Z,92.80
2017-12-21T17:11:37.918Z,92.70
2017-12-21T17:14:05.380Z,93.00
2017-12-21T17:16:32.834Z,92.60
2017-12-21T17:19:00.324Z,92.60
2017-12-21T17:21:28.541Z,92.70
2017-12-21T17:23:55.995Z,92.70
2017-12-21T17:26:23.485Z,92.70
2017-12-21T17:28:50.941Z,92.70
2017-12-21T17:31:18.424Z,92.70
2017-12-21T17:33:46.700Z,92.70
2017-12-21T17:36:14.923Z,92.80
2017-12-21T17:38:43.474Z,92.80
2017-12-21T17:41:10.944Z,92.80
2017-12-21T17:43:38.430Z,92.80
2017-12-21T17:46:05.925Z,92.70
2017-12-21T17:48:34.200Z,92.40
2017-12-21T17:51:02.421Z,92.50
2017-12-21T17:53:29.885Z,92.50
2017-12-21T17:55:57.351Z,92.40
2017-12-21T17:58:24.807Z,92.40
2017-12-21T18:00:52.276Z,92.30
2017-12-21T18:03:19.726Z,92.30
2017-12-21T18:05:47.179Z,92.20
2017-12-21T18:08:14.682Z,92.00
2017-12-21T18:10:42.165Z,91.90
2017-12-21T18:13:09.615Z,92.00
2017-12-21T18:15:37.124Z,92.00
2017-12-21T18:18:04.600Z,91.90
2017-12-21T18:20:32.853Z,92.00
2017-12-21T18:23:00.316Z,92.00
2017-12-21T18:25:28.550Z,92.30
2017-12-21T18:27:56.038Z,92.20
2017-12-21T18:30:23.500Z,92.40
2017-12-21T18:32:51.724Z,92.60
2017-12-21T18:35:19.218Z,92.50
2017-12-21T18:37:46.717Z,92.60
2017-12-21T18:40:14.218Z,92.80
2017-12-21T18:42:41.723Z,92.80
2017-12-21T18:45:09.177Z,92.90
2017-12-21T18:47:36.627Z,92.90
2017-12-21T18:50:04.083Z,93.00
2017-12-21T18:52:32.349Z,92.90
2017-12-21T18:55:00.590Z,92.70
2017-12-21T18:57:28.039Z,92.70
2017-12-21T18:59:56.655Z,92.70
2017-12-21T19:02:24.158Z,92.70
2017-12-21T19:04:51.661Z,92.60
2017-12-21T19:07:19.157Z,92.50
2017-12-21T19:09:46.670Z,92.50
2017-12-21T19:12:14.114Z,92.50
2017-12-21T19:14:41.893Z,92.40
2017-12-21T19:17:09.477Z,92.40
2017-12-21T19:19:37.002Z,92.40
2017-12-21T19:22:04.507Z,92.30
2017-12-21T19:24:31.981Z,92.20
2017-12-21T19:26:59.522Z,92.30
2017-12-21T19:29:27.143Z,92.00
2017-12-21T19:31:54.679Z,92.10
2017-12-21T19:34:22.148Z,92.00
2017-12-21T19:36:49.655Z,92.00
2017-12-21T19:39:17.168Z,91.90
2017-12-21T19:41:44.690Z,91.70
2017-12-21T19:44:12.248Z,91.70
2017-12-21T19:46:39.825Z,91.80
2017-12-21T19:49:07.367Z,91.70
2017-12-21T19:51:34.873Z,91.80
2017-12-21T19:54:03.166Z,92.10
2017-12-21T19:56:31.488Z,92.20
2017-12-21T19:58:59.000Z,92.20
2017-12-21T20:01:27.617Z,92.30
2017-12-21T20:03:55.110Z,92.30
2017-12-21T20:06:22.797Z,92.10
2017-12-21T20:08:51.119Z,91.70
2017-12-21T20:11:18.600Z,91.60
2017-12-21T20:13:46.164Z,91.30
2017-12-21T20:16:13.697Z,91.40
2017-12-21T20:18:41.232Z,91.40
2017-12-21T20:21:08.696Z,91.40
2017-12-21T20:23:36.147Z,91.40
2017-12-21T20:26:03.719Z,91.40
2017-12-21T20:28:31.214Z,91.40
2017-12-21T20:30:58.843Z,91.30
2017-12-21T20:33:26.354Z,91.20
2017-12-21T20:35:53.883Z,91.30
2017-12-21T20:38:21.382Z,91.40
2017-12-21T20:40:48.963Z,91.30
2017-12-21T20:43:16.460Z,91.30
2017-12-21T20:45:44.056Z,91.40
2017-12-21T20:48:11.657Z,91.10
2017-12-21T20:50:39.217Z,91.30
2017-12-21T20:53:06.813Z,91.40
2017-12-21T20:55:34.377Z,91.40
2017-12-21T20:58:02.752Z,91.40
2017-12-21T21:00:30.314Z,91.40
2017-12-21T21:02:57.881Z,91.20
2017-12-21T21:05:25.409Z,91.20
2017-12-21T21:07:52.954Z,91.30
2017-12-21T21:10:20.480Z,91.10
2017-12-21T21:12:48.024Z,91.10
2017-12-21T21:15:15.585Z,91.40
2017-12-21T21:17:43.077Z,91.50
2017-12-21T21:23:20.022Z,91.80
2017-12-21T21:25:48.357Z,91.90
2017-12-21T21:28:15.859Z,91.80
2017-12-21T21:30:44.134Z,92.00
2017-12-21T21:33:12.446Z,92.10
2017-12-21T21:35:40.022Z,92.10
2017-12-21T21:38:07.684Z,92.20
2017-12-21T21:40:35.263Z,92.20
2017-12-21T21:43:03.704Z,92.30
2017-12-21T21:45:32.142Z,92.40
2017-12-21T21:47:59.653Z,92.40
2017-12-21T21:50:27.192Z,92.30
2017-12-21T21:52:55.584Z,92.00
2017-12-21T21:55:23.190Z,92.10
2017-12-21T21:57:51.424Z,92.00
2017-12-21T22:00:19.008Z,91.90
2017-12-21T22:02:47.287Z,91.60
2017-12-21T22:05:14.876Z,91.60
2017-12-21T22:07:42.938Z,91.60
2017-12-21T22:10:10.496Z,91.60
2017-12-21T22:12:37.975Z,91.70
2017-12-21T22:15:05.456Z,91.80
2017-12-21T22:17:32.981Z,91.90
2017-12-21T22:20:00.495Z,92.00
2017-12-21T22:22:27.999Z,92.00
2017-12-21T22:24:55.567Z,91.90
2017-12-21T22:27:23.147Z,91.90
2017-12-21T22:29:50.706Z,91.80
2017-12-21T22:32:18.213Z,92.00
2017-12-21T22:34:45.762Z,92.00
2017-12-21T22:37:13.975Z,92.00
2017-12-21T22:39:41.465Z,91.90
2017-12-21T22:42:08.946Z,92.10
2017-12-21T22:44:37.221Z,92.30
2017-12-21T22:47:05.474Z,92.10
2017-12-21T22:49:32.939Z,92.10
2017-12-21T22:52:00.460Z,92.10
2017-12-21T22:54:27.955Z,92.30
2017-12-21T22:56:55.461Z,92.10
2017-12-21T22:59:22.950Z,92.20
2017-12-21T23:01:50.438Z,92.30
2017-12-21T23:04:18.699Z,92.50
2017-12-21T23:06:46.131Z,92.50
2017-12-21T23:09:13.584Z,92.50
2017-12-21T23:11:41.083Z,92.50
2017-12-21T23:14:09.353Z,92.40
2017-12-21T23:16:37.573Z,92.60
2017-12-21T23:19:05.067Z,92.60
2017-12-21T23:21:32.561Z,92.60
2017-12-21T23:24:00.826Z,92.60
2017-12-21T23:26:29.063Z,92.60
2017-12-21T23:28:56.565Z,92.60
2017-12-21T23:31:24.767Z,92.70
2017-12-21T23:33:52.262Z,92.70
2017-12-21T23:36:19.758Z,92.70
2017-12-21T23:38:47.196Z,92.60
2017-12-21T23:41:15.453Z,92.70
2017-12-21T23:43:42.902Z,92.70
2017-12-21T23:46:10.398Z,92.70
2017-12-21T23:48:37.831Z,92.60
2017-12-21T23:51:06.053Z,92.70
2017-12-21T23:53:33.537Z,92.70
2017-12-21T23:56:00.983Z,92.70
2017-12-21T23:58:28.432Z,92.80
